createdAt,value
2018-02-04T00:00:13.283Z,9.88
2018-02-04T00:02:41.718Z,10.20
2018-02-04T00:05:10.418Z,10.30
2018-02-04T00:07:39.154Z,11.23
2018-02-04T00:10:08.135Z,10.35
2018-02-04T00:12:37.609Z,10.65
2018-02-04T00:15:06.306Z,10.85
2018-02-04T00:17:35.050Z,10.85
2018-02-04T00:20:03.745Z,12.35
2018-02-04T00:22:38.458Z,10.90
2018-02-04T00:25:07.897Z,11.10
2018-02-04T00:27:36.610Z,12.10
2018-02-04T00:30:04.655Z,12.77
2018-02-04T00:32:33.378Z,10.48
2018-02-04T00:35:02.090Z,11.70
2018-02-04T00:37:31.426Z,10.75
2018-02-04T00:40:00.128Z,10.52
2018-02-04T00:42:28.831Z,9.48
2018-02-04T00:44:57.526Z,10.20
2018-02-04T00:47:26.270Z,12.27
2018-02-04T00:49:55.137Z,10.48
2018-02-04T00:52:23.893Z,10.75
2018-02-04T00:54:53.359Z,12.50
2018-02-04T00:57:22.078Z,10.48
2018-02-04T00:59:50.110Z,14.80
2018-02-04T01:02:18.822Z,11.55
2018-02-04T01:04:47.522Z,11.60
2018-02-04T01:07:16.258Z,11.63
2018-02-04T01:09:44.950Z,11.25
2018-02-04T01:12:13.801Z,11.73
2018-02-04T01:14:42.522Z,16.33
2018-02-04T01:17:11.242Z,16.10
2018-02-04T01:19:39.970Z,16.55
2018-02-04T01:22:08.662Z,12.73
2018-02-04T01:24:38.146Z,13.38
2018-02-04T01:27:06.958Z,13.23
2018-02-04T01:29:35.682Z,11.93
2018-02-04T01:32:04.390Z,12.60
2018-02-04T01:34:33.253Z,12.98
2018-02-04T01:37:02.010Z,11.02
2018-02-04T01:39:31.692Z,13.30
2018-02-04T01:42:01.326Z,12.88
2018-02-04T01:44:30.046Z,16.50
2018-02-04T01:46:58.775Z,12.27
2018-02-04T01:49:27.470Z,13.68
2018-02-04T01:51:56.191Z,14.50
2018-02-04T01:54:25.658Z,15.40
2018-02-04T01:56:54.374Z,12.63
2018-02-04T01:59:23.846Z,13.88
2018-02-04T02:01:52.614Z,14.65
2018-02-04T02:04:21.330Z,13.25
2018-02-04T02:06:50.055Z,14.43
2018-02-04T02:09:19.202Z,13.40
2018-02-04T02:11:48.007Z,14.35
2018-02-04T02:14:16.771Z,18.52
2018-02-04T02:16:45.502Z,13.38
2018-02-04T02:19:14.194Z,14.02
2018-02-04T02:21:42.913Z,15.75
2018-02-04T02:24:11.614Z,14.65
2018-02-04T02:26:40.138Z,15.60
2018-02-04T02:29:08.845Z,19.75
2018-02-04T02:31:37.577Z,18.02
2018-02-04T02:34:06.643Z,17.60
2018-02-04T02:36:36.119Z,17.17
2018-02-04T02:39:04.238Z,18.20
2018-02-04T02:41:32.938Z,16.27
2018-02-04T02:44:01.670Z,19.27
2018-02-04T02:46:31.150Z,16.67
2018-02-04T02:48:59.595Z,20.40
2018-02-04T02:51:28.417Z,20.55
2018-02-04T02:53:57.147Z,17.60
2018-02-04T02:56:25.878Z,22.33
2018-02-04T02:58:54.593Z,21.92
2018-02-04T03:01:23.318Z,20.33
2018-02-04T03:03:52.790Z,22.30
2018-02-04T03:06:21.501Z,25.23
2018-02-04T03:08:51.730Z,21.67
2018-02-04T03:11:21.226Z,20.45
2018-02-04T03:13:49.930Z,20.92
2018-02-04T03:16:19.505Z,16.00
2018-02-04T03:18:48.210Z,15.30
2018-02-04T03:21:16.973Z,18.67
2018-02-04T03:23:46.087Z,17.80
2018-02-04T03:26:14.818Z,16.62
2018-02-04T03:28:44.526Z,16.05
2018-02-04T03:31:14.010Z,17.58
2018-02-04T03:33:42.715Z,22.45
2018-02-04T03:36:12.192Z,16.40
2018-02-04T03:38:40.926Z,18.83
2018-02-04T03:41:10.626Z,23.65
2018-02-04T03:43:38.906Z,17.87
2018-02-04T03:46:07.626Z,18.90
2018-02-04T03:48:36.386Z,21.10
2018-02-04T03:51:05.501Z,17.58
2018-02-04T03:53:34.263Z,20.00
2018-02-04T03:56:03.759Z,16.20
2018-02-04T03:58:33.246Z,16.90
2018-02-04T04:01:01.950Z,17.27
2018-02-04T04:03:30.478Z,19.95
2018-02-04T04:05:59.206Z,18.20
2018-02-04T04:08:28.010Z,18.55
2018-02-04T04:10:56.730Z,20.10
2018-02-04T04:13:25.433Z,22.58
2018-02-04T04:15:54.170Z,21.67
2018-02-04T04:18:22.874Z,20.15
2018-02-04T04:20:52.418Z,19.20
2018-02-04T04:23:21.122Z,19.83
2018-02-04T04:25:49.846Z,20.02
2018-02-04T04:28:18.603Z,19.27
2018-02-04T04:30:47.322Z,18.60
2018-02-04T04:33:16.798Z,21.08
2018-02-04T04:35:45.524Z,22.42
2018-02-04T04:38:15.004Z,21.42
2018-02-04T04:40:43.735Z,21.40
2018-02-04T04:43:12.447Z,20.75
2018-02-04T04:45:41.164Z,21.83
2018-02-04T04:48:09.870Z,21.42
2018-02-04T04:50:38.654Z,18.60
2018-02-04T04:53:07.374Z,19.05
2018-02-04T04:55:36.091Z,19.25
2018-02-04T04:58:04.829Z,19.77
2018-02-04T05:00:34.305Z,20.65
2018-02-04T05:03:03.031Z,17.75
2018-02-04T05:05:32.565Z,19.33
2018-02-04T05:08:01.286Z,21.65
2018-02-04T05:10:30.012Z,20.08
2018-02-04T05:12:59.506Z,16.80
2018-02-04T05:15:28.425Z,21.65
2018-02-04T05:17:57.134Z,21.80
2018-02-04T05:20:25.854Z,18.12
2018-02-04T05:22:54.569Z,15.70
2018-02-04T05:25:24.062Z,18.02
2018-02-04T05:27:52.778Z,17.80
2018-02-04T05:30:22.282Z,18.80
2018-02-04T05:32:51.774Z,21.73
2018-02-04T05:35:20.511Z,18.42
2018-02-04T05:37:49.265Z,18.67
2018-02-04T05:40:18.773Z,22.87
2018-02-04T05:42:48.334Z,20.65
2018-02-04T05:45:17.074Z,20.48
2018-02-04T05:47:46.277Z,22.48
2018-02-04T05:50:14.983Z,22.15
2018-02-04T05:52:43.042Z,22.50
2018-02-04T05:55:11.810Z,17.05
2018-02-04T05:57:41.307Z,20.65
2018-02-04T06:00:09.834Z,22.62
2018-02-04T06:02:38.809Z,20.25
2018-02-04T06:05:07.522Z,23.75
2018-02-04T06:07:36.254Z,21.60
2018-02-04T06:10:04.965Z,18.25
2018-02-04T06:12:34.435Z,19.17
2018-02-04T06:15:03.167Z,23.35
2018-02-04T06:17:31.899Z,20.27
2018-02-04T06:20:00.444Z,18.15
2018-02-04T06:22:29.016Z,21.05
2018-02-04T06:24:58.319Z,25.60
2018-02-04T06:27:27.602Z,22.90
2018-02-04T06:29:56.330Z,22.77
2018-02-04T06:32:25.045Z,20.62
2018-02-04T06:34:53.584Z,25.83
2018-02-04T06:37:23.070Z,25.55
2018-02-04T06:39:51.798Z,19.20
2018-02-04T06:42:20.542Z,23.20
2018-02-04T06:44:49.258Z,21.73
2018-02-04T06:47:18.810Z,22.55
2018-02-04T06:49:47.533Z,23.75
2018-02-04T06:52:16.246Z,23.75
2018-02-04T06:54:44.970Z,20.70
2018-02-04T06:57:13.729Z,24.30
2018-02-04T06:59:42.529Z,18.23
2018-02-04T07:02:11.298Z,24.65
2018-02-04T07:04:40.734Z,25.58
2018-02-04T07:07:09.446Z,23.80
2018-02-04T07:09:38.171Z,18.83
2018-02-04T07:12:07.662Z,23.55
2018-02-04T07:14:37.873Z,16.90
2018-02-04T07:17:06.605Z,20.62
2018-02-04T07:19:35.326Z,19.35
2018-02-04T07:22:04.054Z,23.67
2018-02-04T07:24:32.970Z,18.40
2018-02-04T07:27:01.889Z,20.10
2018-02-04T07:29:29.976Z,19.70
2018-02-04T07:31:58.826Z,18.48
2018-02-04T07:34:27.572Z,19.60
2018-02-04T07:36:56.865Z,22.20
2018-02-04T07:39:24.969Z,21.55
2018-02-04T07:41:53.774Z,18.52
2018-02-04T07:44:23.274Z,22.73
2018-02-04T07:46:52.796Z,15.55
2018-02-04T07:49:21.666Z,18.55
2018-02-04T07:51:50.597Z,19.95
2018-02-04T07:54:19.709Z,19.00
2018-02-04T07:56:48.831Z,16.50
2018-02-04T07:59:17.604Z,18.33
2018-02-04T08:01:46.713Z,16.10
2018-02-04T08:04:15.422Z,15.20
2018-02-04T08:06:44.150Z,20.55
2018-02-04T08:09:12.872Z,17.48
2018-02-04T08:11:42.056Z,17.17
2018-02-04T08:14:10.825Z,20.58
2018-02-04T08:16:39.718Z,18.50
2018-02-04T08:19:08.855Z,17.25
2018-02-04T08:21:37.577Z,22.73
2018-02-04T08:24:06.702Z,18.58
2018-02-04T08:26:36.556Z,18.67
2018-02-04T08:29:05.714Z,22.02
2018-02-04T08:31:34.822Z,14.25
2018-02-04T08:34:03.590Z,16.62
2018-02-04T08:36:32.703Z,15.18
2018-02-04T08:39:01.858Z,14.43
2018-02-04T08:41:30.569Z,11.45
2018-02-04T08:43:59.769Z,13.70
2018-02-04T08:46:28.633Z,12.80
2018-02-04T08:48:57.498Z,15.60
2018-02-04T08:51:26.602Z,15.15
2018-02-04T08:53:55.886Z,16.10
2018-02-04T08:56:24.734Z,14.80
2018-02-04T08:58:54.246Z,12.50
2018-02-04T09:01:23.734Z,13.50
2018-02-04T09:03:52.458Z,13.32
2018-02-04T09:06:21.279Z,12.35
2018-02-04T09:08:49.722Z,13.30
2018-02-04T09:11:18.682Z,16.52
2018-02-04T09:13:47.951Z,11.00
2018-02-04T09:16:17.582Z,10.20
2018-02-04T09:18:46.037Z,8.30
2018-02-04T09:21:14.475Z,12.23
2018-02-04T09:23:43.713Z,12.37
2018-02-04T09:26:12.540Z,10.30
2018-02-04T09:28:41.802Z,8.50
2018-02-04T09:31:10.648Z,10.10
2018-02-04T09:33:39.131Z,9.97
2018-02-04T09:36:07.585Z,11.93
2018-02-04T09:38:36.774Z,9.97
2018-02-04T09:41:05.977Z,10.50
2018-02-04T09:43:34.819Z,11.77
2018-02-04T09:46:03.654Z,9.33
2018-02-04T09:48:32.859Z,8.00
2018-02-04T09:51:02.061Z,9.57
2018-02-04T09:53:31.394Z,7.20
2018-02-04T09:55:59.814Z,8.00
2018-02-04T09:58:28.671Z,8.57
2018-02-04T10:00:57.518Z,9.80
2018-02-04T10:03:25.951Z,8.60
2018-02-04T10:05:54.800Z,8.47
2018-02-04T10:08:23.990Z,9.67
2018-02-04T10:10:52.438Z,9.33
2018-02-04T10:13:20.873Z,7.83
2018-02-04T10:15:50.331Z,6.13
2018-02-04T10:18:18.779Z,7.27
2018-02-04T10:20:47.618Z,7.23
2018-02-04T10:23:17.553Z,7.13
2018-02-04T10:25:46.497Z,7.43
2018-02-04T10:28:15.784Z,6.80
2018-02-04T10:30:45.137Z,7.40
2018-02-04T10:33:13.542Z,7.47
2018-02-04T10:35:42.801Z,7.30
2018-02-04T10:38:11.730Z,5.50
2018-02-04T10:40:40.637Z,6.67
2018-02-04T10:43:09.463Z,7.30
2018-02-04T10:45:37.892Z,7.20
2018-02-04T10:48:06.731Z,7.60
2018-02-04T10:50:35.365Z,7.07
2018-02-04T10:53:04.610Z,8.43
2018-02-04T10:55:33.436Z,6.27
2018-02-04T10:58:02.005Z,7.87
2018-02-04T11:00:32.405Z,7.57
2018-02-04T11:03:01.656Z,5.70
2018-02-04T11:05:30.486Z,5.53
2018-02-04T11:07:58.944Z,7.47
2018-02-04T11:10:27.771Z,7.07
2018-02-04T11:12:56.725Z,5.87
2018-02-04T11:15:25.703Z,5.50
2018-02-04T11:17:54.547Z,4.63
2018-02-04T11:20:23.024Z,4.10
2018-02-04T11:22:51.437Z,5.23
2018-02-04T11:25:19.903Z,3.83
2018-02-04T11:27:48.848Z,2.60
2018-02-04T11:30:17.023Z,3.30
2018-02-04T11:32:45.852Z,3.00
2018-02-04T11:35:14.700Z,3.23
2018-02-04T11:37:43.561Z,3.33
2018-02-04T11:40:12.767Z,2.33
2018-02-04T11:42:41.640Z,2.83
2018-02-04T11:45:10.106Z,2.53
2018-02-04T11:47:38.749Z,3.43
2018-02-04T11:50:07.583Z,3.63
2018-02-04T11:52:36.231Z,3.10
2018-02-04T11:55:05.236Z,6.40
2018-02-04T11:57:34.486Z,3.50
2018-02-04T12:00:03.705Z,5.40
2018-02-04T12:02:32.551Z,3.73
2018-02-04T12:05:01.782Z,3.90
2018-02-04T12:07:30.630Z,4.20
2018-02-04T12:09:59.449Z,3.13
2018-02-04T12:12:27.923Z,4.00
2018-02-04T12:14:56.752Z,3.80
2018-02-04T12:17:25.599Z,4.43
2018-02-04T12:19:54.450Z,3.30
2018-02-04T12:22:23.134Z,4.60
2018-02-04T12:24:51.566Z,4.20
2018-02-04T12:27:20.445Z,3.50
2018-02-04T12:29:49.661Z,4.10
2018-02-04T12:32:19.246Z,4.10
2018-02-04T12:34:47.665Z,4.50
2018-02-04T12:37:16.522Z,5.33
2018-02-04T12:39:44.958Z,4.23
2018-02-04T12:42:13.402Z,4.83
2018-02-04T12:44:41.900Z,7.53
2018-02-04T12:47:10.816Z,4.50
2018-02-04T12:49:39.646Z,7.60
2018-02-04T12:52:08.273Z,5.90
2018-02-04T12:54:36.738Z,4.13
2018-02-04T12:57:05.658Z,5.40
2018-02-04T12:59:34.278Z,5.27
2018-02-04T13:02:03.476Z,5.17
2018-02-04T13:04:32.698Z,6.50
2018-02-04T13:07:01.604Z,7.10
2018-02-04T13:09:30.433Z,6.10
2018-02-04T13:12:00.527Z,8.27
2018-02-04T13:14:29.067Z,7.63
2018-02-04T13:16:58.434Z,7.20
2018-02-04T13:19:26.883Z,7.50
2018-02-04T13:21:56.071Z,6.73
2018-02-04T13:24:24.342Z,10.20
2018-02-04T13:26:52.780Z,12.93
2018-02-04T13:29:21.478Z,9.93
2018-02-04T13:31:50.738Z,12.03
2018-02-04T13:34:19.856Z,9.32
2018-02-04T13:36:48.947Z,12.65
2018-02-04T13:39:17.813Z,11.30
2018-02-04T13:41:47.002Z,8.87
2018-02-04T13:44:15.727Z,6.97
2018-02-04T13:46:44.955Z,4.80
2018-02-04T13:49:13.777Z,5.53
2018-02-04T13:51:43.327Z,8.00
2018-02-04T13:54:12.034Z,4.90
2018-02-04T13:56:40.742Z,3.05
2018-02-04T13:59:09.450Z,3.05
2018-02-04T14:01:38.575Z,2.80
2018-02-04T14:04:08.318Z,3.62
2018-02-04T14:06:37.435Z,4.50
2018-02-04T14:09:06.526Z,4.05
2018-02-04T14:11:35.227Z,3.70
2018-02-04T14:14:04.346Z,3.90
2018-02-04T14:16:33.585Z,5.32
2018-02-04T14:19:01.981Z,5.37
2018-02-04T14:21:30.733Z,5.35
2018-02-04T14:24:00.227Z,4.50
2018-02-04T14:26:29.457Z,5.93
2018-02-04T14:28:58.562Z,8.63
2018-02-04T14:31:27.266Z,5.78
2018-02-04T14:33:55.795Z,6.40
2018-02-04T14:36:24.754Z,5.87
2018-02-04T14:38:53.454Z,5.80
2018-02-04T14:41:22.160Z,5.40
2018-02-04T14:43:50.864Z,5.40
2018-02-04T14:46:20.562Z,6.43
2018-02-04T14:48:50.056Z,5.95
2018-02-04T14:51:18.747Z,6.40
2018-02-04T14:53:47.433Z,5.22
2018-02-04T14:56:16.915Z,5.80
2018-02-04T14:58:45.306Z,5.93
2018-02-04T15:01:14.798Z,7.22
2018-02-04T15:03:43.694Z,9.38
2018-02-04T15:06:12.785Z,8.30
2018-02-04T15:08:41.494Z,8.05
2018-02-04T15:11:10.606Z,7.07
2018-02-04T15:13:39.327Z,6.65
2018-02-04T15:16:08.415Z,6.90
2018-02-04T15:18:37.580Z,6.87
2018-02-04T15:21:06.443Z,7.72
2018-02-04T15:23:35.190Z,8.00
2018-02-04T15:26:04.334Z,7.93
2018-02-04T15:28:33.422Z,9.02
2018-02-04T15:31:02.134Z,7.55
2018-02-04T15:33:31.603Z,7.60
2018-02-04T15:36:00.306Z,10.23
2018-02-04T15:38:29.016Z,8.20
2018-02-04T15:40:58.104Z,9.02
2018-02-04T15:43:26.828Z,7.68
2018-02-04T15:45:55.931Z,9.32
2018-02-04T15:48:25.034Z,9.27
2018-02-04T15:50:53.456Z,13.50
2018-02-04T15:53:22.210Z,8.65
2018-02-04T15:55:50.948Z,7.37
2018-02-04T15:58:19.733Z,9.73
2018-02-04T16:00:48.472Z,8.20
2018-02-04T16:03:17.327Z,15.18
2018-02-04T16:05:46.059Z,10.75
2018-02-04T16:08:14.782Z,6.53
2018-02-04T16:10:43.522Z,8.73
2018-02-04T16:13:12.988Z,8.80
2018-02-04T16:15:41.690Z,8.13
2018-02-04T16:18:11.199Z,9.10
2018-02-04T16:20:40.089Z,8.07
2018-02-04T16:23:08.804Z,7.82
2018-02-04T16:25:38.261Z,8.48
2018-02-04T16:28:07.019Z,8.93
2018-02-04T16:30:35.702Z,8.38
2018-02-04T16:33:04.502Z,9.50
2018-02-04T16:35:33.209Z,7.53
2018-02-04T16:38:01.964Z,7.70
2018-02-04T16:40:30.706Z,7.90
2018-02-04T16:42:59.580Z,8.38
2018-02-04T16:45:28.451Z,8.50
2018-02-04T16:47:58.094Z,9.95
2018-02-04T16:50:26.814Z,9.63
2018-02-04T16:52:56.066Z,9.60
2018-02-04T16:55:24.447Z,9.73
2018-02-04T16:57:53.154Z,10.25
2018-02-04T17:00:21.874Z,9.07
2018-02-04T17:02:51.358Z,9.00
2018-02-04T17:05:20.866Z,9.80
2018-02-04T17:07:48.914Z,9.43
2018-02-04T17:10:17.632Z,10.63
2018-02-04T17:12:47.163Z,10.27
2018-02-04T17:15:16.247Z,12.18
2018-02-04T17:17:45.763Z,11.75
2018-02-04T17:20:14.969Z,10.52
2018-02-04T17:22:43.753Z,14.00
2018-02-04T17:25:12.473Z,12.70
2018-02-04T17:27:41.229Z,11.32
2018-02-04T17:30:10.765Z,12.05
2018-02-04T17:32:39.530Z,13.10
2018-02-04T17:35:08.224Z,9.98
2018-02-04T17:37:37.041Z,11.40
2018-02-04T17:40:05.582Z,12.60
2018-02-04T17:42:35.101Z,12.93
2018-02-04T17:45:03.504Z,13.02
2018-02-04T17:47:32.043Z,14.80
2018-02-04T17:50:01.410Z,12.73
2018-02-04T17:52:29.949Z,11.52
2018-02-04T17:54:58.734Z,11.80
2018-02-04T17:57:27.626Z,12.25
2018-02-04T17:59:56.397Z,12.60
2018-02-04T18:02:25.182Z,13.38
2018-02-04T18:04:54.707Z,13.50
2018-02-04T18:07:22.762Z,12.88
2018-02-04T18:09:52.294Z,12.15
2018-02-04T18:12:21.015Z,13.62
2018-02-04T18:14:49.750Z,16.12
2018-02-04T18:17:18.522Z,14.90
2018-02-04T18:19:47.265Z,13.82
2018-02-04T18:22:15.990Z,14.77
2018-02-04T18:24:44.714Z,16.27
2018-02-04T18:27:13.422Z,16.33
2018-02-04T18:29:42.169Z,18.65
2018-02-04T18:32:10.883Z,13.75
2018-02-04T18:34:39.618Z,15.90
2018-02-04T18:37:08.520Z,16.33
2018-02-04T18:39:37.267Z,14.23
2018-02-04T18:42:05.994Z,16.92
2018-02-04T18:44:36.258Z,16.55
2018-02-04T18:47:05.810Z,20.55
2018-02-04T18:49:34.530Z,17.10
2018-02-04T18:52:03.272Z,12.35
2018-02-04T18:54:32.001Z,15.73
2018-02-04T18:57:01.658Z,16.70
2018-02-04T18:59:30.503Z,16.23
2018-02-04T19:01:59.317Z,17.17
2018-02-04T19:04:28.822Z,19.48
2018-02-04T19:06:58.327Z,15.70
2018-02-04T19:09:28.087Z,18.00
2018-02-04T19:11:57.137Z,16.12
2018-02-04T19:14:26.273Z,18.25
2018-02-04T19:16:55.019Z,20.27
2018-02-04T19:19:24.541Z,17.60
2018-02-04T19:21:53.388Z,19.02
2018-02-04T19:24:22.118Z,21.10
2018-02-04T19:26:51.618Z,25.12
2018-02-04T19:29:21.190Z,22.45
2018-02-04T19:31:49.933Z,26.55
2018-02-04T19:34:18.658Z,26.90
2018-02-04T19:36:47.050Z,27.77
2018-02-04T19:39:15.770Z,26.08
2018-02-04T19:41:45.278Z,22.05
2018-02-04T19:44:14.778Z,24.40
2018-02-04T19:46:44.279Z,25.45
2018-02-04T19:49:13.026Z,24.33
2018-02-04T19:51:41.769Z,24.27
2018-02-04T19:54:11.253Z,27.70
2018-02-04T19:56:41.491Z,24.35
2018-02-04T19:59:10.943Z,35.45
2018-02-04T20:01:39.697Z,22.20
2018-02-04T20:04:08.874Z,22.83
2018-02-04T20:06:38.506Z,21.67
2018-02-04T20:09:07.223Z,23.40
2018-02-04T20:11:35.962Z,20.83
2018-02-04T20:14:05.101Z,21.77
2018-02-04T20:16:33.856Z,21.00
2018-02-04T20:19:03.374Z,19.45
2018-02-04T20:21:32.876Z,22.42
2018-02-04T20:24:02.402Z,24.08
2018-02-04T20:26:31.218Z,22.90
2018-02-04T20:28:59.995Z,21.02
2018-02-04T20:31:28.540Z,20.40
2018-02-04T20:34:09.358Z,22.87
2018-02-04T20:36:37.415Z,22.45
2018-02-04T20:39:05.858Z,26.98
2018-02-04T20:41:34.586Z,27.52
2018-02-04T20:44:03.394Z,26.33
2018-02-04T20:46:32.102Z,24.95
2018-02-04T20:49:00.858Z,27.77
2018-02-04T20:51:29.588Z,31.05
2018-02-04T20:53:58.522Z,28.45
2018-02-04T20:56:27.238Z,30.80
2018-02-04T20:58:56.203Z,29.33
2018-02-04T21:01:24.933Z,32.08
2018-02-04T21:03:53.066Z,25.83
2018-02-04T21:06:21.817Z,33.17
2018-02-04T21:08:50.684Z,31.80
2018-02-04T21:11:19.421Z,32.53
2018-02-04T21:13:48.894Z,30.08
2018-02-04T21:16:17.637Z,32.00
2018-02-04T21:18:48.099Z,38.60
2018-02-04T21:21:16.834Z,29.25
2018-02-04T21:23:46.369Z,32.30
2018-02-04T21:26:15.505Z,35.08
2018-02-04T21:28:44.233Z,32.83
2018-02-04T21:31:13.734Z,29.80
2018-02-04T21:33:42.926Z,37.13
2018-02-04T21:36:12.402Z,29.85
2018-02-04T21:38:41.149Z,33.08
2018-02-04T21:41:09.893Z,30.10
2018-02-04T21:43:38.635Z,34.47
2018-02-04T21:46:07.372Z,26.87
2018-02-04T21:48:36.512Z,27.77
2018-02-04T21:51:05.245Z,31.77
2018-02-04T21:53:34.046Z,33.97
2018-02-04T21:56:02.773Z,31.58
2018-02-04T21:58:31.512Z,33.13
2018-02-04T22:01:00.236Z,26.48
2018-02-04T22:03:29.710Z,29.25
2018-02-04T22:05:58.456Z,29.50
2018-02-04T22:08:27.262Z,30.23
2018-02-04T22:10:56.126Z,26.10
2018-02-04T22:13:24.840Z,26.85
2018-02-04T22:15:53.566Z,24.90
2018-02-04T22:18:22.287Z,28.77
2018-02-04T22:20:51.007Z,30.95
2018-02-04T22:23:19.733Z,31.10
2018-02-04T22:25:48.558Z,31.52
2018-02-04T22:28:17.266Z,35.60
2018-02-04T22:30:46.003Z,30.60
2018-02-04T22:33:14.906Z,29.10
2018-02-04T22:35:44.172Z,32.22
2018-02-04T22:38:12.937Z,31.90
2018-02-04T22:40:41.678Z,32.33
2018-02-04T22:43:11.167Z,35.03
2018-02-04T22:45:39.565Z,35.67
2018-02-04T22:48:09.065Z,34.30
2018-02-04T22:50:37.803Z,37.40
2018-02-04T22:53:06.338Z,36.60
2018-02-04T22:55:35.052Z,31.85
2018-02-04T22:58:04.374Z,30.33
2018-02-04T23:00:33.130Z,31.83
2018-02-04T23:03:02.624Z,32.70
2018-02-04T23:05:31.345Z,27.37
2018-02-04T23:07:59.870Z,29.77
2018-02-04T23:10:28.819Z,26.05
2018-02-04T23:12:57.549Z,27.10
2018-02-04T23:15:26.294Z,25.58
2018-02-04T23:17:55.002Z,30.25
2018-02-04T23:20:23.555Z,25.02
2018-02-04T23:22:52.438Z,26.70
2018-02-04T23:25:21.987Z,30.30
2018-02-04T23:27:50.654Z,29.70
2018-02-04T23:30:19.377Z,31.05
2018-02-04T23:32:48.110Z,32.42
2018-02-04T23:35:17.599Z,35.03
2018-02-04T23:37:46.324Z,36.03
2018-02-04T23:40:15.168Z,35.50
2018-02-04T23:42:43.910Z,34.28
2018-02-04T23:45:12.630Z,36.30
2018-02-04T23:47:41.424Z,34.75
2018-02-04T23:50:10.140Z,37.63
2018-02-04T23:52:38.952Z,30.90
2018-02-04T23:55:08.548Z,32.58
2018-02-04T23:57:37.262Z,28.65
